createdAt,value
2022-08-04T00:00:29.505Z,20.40
2022-08-04T00:03:19.663Z,20.40
2022-08-04T00:05:52.922Z,20.30
2022-08-04T00:08:35.286Z,20.20
2022-08-04T00:11:02.703Z,20.20
2022-08-04T00:13:32.824Z,20.10
2022-08-04T00:16:06.628Z,20.10
2022-08-04T00:18:46.614Z,20.00
2022-08-04T00:21:15.881Z,20.00
2022-08-04T00:24:11.103Z,19.90
2022-08-04T00:26:31.182Z,19.90
2022-08-04T00:28:58.454Z,19.80
2022-08-04T00:31:53.576Z,19.80
2022-08-04T00:34:13.833Z,19.80
2022-08-04T00:36:43.333Z,19.70
2022-08-04T00:39:14.189Z,19.60
2022-08-04T00:42:04.581Z,19.50
2022-08-04T00:44:43.509Z,19.50
2022-08-04T00:47:19.862Z,19.40
2022-08-04T00:50:06.097Z,19.30
2022-08-04T00:52:53.487Z,19.30
2022-08-04T00:55:35.184Z,19.30
2022-08-04T00:58:27.262Z,19.20
2022-08-04T01:01:02.737Z,19.20
2022-08-04T01:03:48.734Z,19.20
2022-08-04T01:06:43.986Z,19.20
2022-08-04T01:09:33.098Z,19.10
2022-08-04T01:12:19.262Z,19.00
2022-08-04T01:15:15.114Z,19.00
2022-08-04T01:17:43.958Z,18.90
2022-08-04T01:20:13.526Z,18.70
2022-08-04T01:23:10.466Z,18.70
2022-08-04T01:26:42.727Z,18.60
2022-08-04T01:29:12.974Z,18.60
2022-08-04T01:32:02.341Z,18.50
2022-08-04T01:34:34.779Z,18.40
2022-08-04T01:37:24.926Z,18.50
2022-08-04T01:40:04.280Z,18.40
2022-08-04T01:42:33.494Z,18.40
2022-08-04T01:45:03.535Z,18.40
2022-08-04T01:47:31.062Z,18.40
2022-08-04T01:50:07.238Z,18.20
2022-08-04T01:52:36.203Z,18.10
2022-08-04T01:55:05.438Z,18.00
2022-08-04T01:57:38.527Z,18.00
2022-08-04T02:00:07.225Z,18.00
2022-08-04T02:02:34.627Z,18.00
2022-08-04T02:05:02.050Z,17.90
2022-08-04T02:07:41.552Z,17.90
2022-08-04T02:10:28.727Z,17.80
2022-08-04T02:13:04.251Z,17.80
2022-08-04T02:15:51.761Z,17.70
2022-08-04T02:18:46.138Z,17.70
2022-08-04T02:21:13.387Z,17.60
2022-08-04T02:23:41.063Z,17.60
2022-08-04T02:26:22.119Z,17.60
2022-08-04T02:29:03.674Z,17.60
2022-08-04T02:31:47.658Z,17.50
2022-08-04T02:34:28.299Z,17.40
2022-08-04T02:36:55.960Z,17.40
2022-08-04T02:39:23.432Z,17.40
2022-08-04T02:41:50.942Z,17.40
2022-08-04T02:44:21.630Z,17.30
2022-08-04T02:46:51.394Z,17.30
2022-08-04T02:49:18.800Z,17.20
2022-08-04T02:51:47.594Z,17.20
2022-08-04T02:54:16.311Z,17.20
2022-08-04T02:57:00.677Z,17.20
2022-08-04T02:59:29.111Z,17.10
2022-08-04T03:01:58.271Z,17.10
2022-08-04T03:04:50.506Z,17.20
2022-08-04T03:07:48.620Z,17.20
2022-08-04T03:10:46.926Z,17.10
2022-08-04T03:13:26.670Z,17.10
2022-08-04T03:16:01.674Z,17.10
2022-08-04T03:18:44.849Z,17.10
2022-08-04T03:21:38.287Z,17.10
2022-08-04T03:24:35.834Z,17.00
2022-08-04T03:27:05.840Z,17.10
2022-08-04T03:29:55.308Z,17.10
2022-08-04T03:32:45.517Z,17.20
2022-08-04T03:35:28.430Z,17.20
2022-08-04T03:38:05.933Z,17.20
2022-08-04T03:40:51.893Z,17.30
2022-08-04T03:43:58.947Z,17.30
2022-08-04T03:46:41.468Z,17.30
2022-08-04T03:49:08.835Z,17.40
2022-08-04T03:52:26.697Z,17.40
2022-08-04T03:54:59.985Z,17.40
2022-08-04T03:58:02.066Z,17.30
2022-08-04T04:00:48.559Z,17.30
2022-08-04T04:03:41.387Z,17.30
2022-08-04T04:06:17.517Z,17.30
2022-08-04T04:09:20.612Z,17.30
2022-08-04T04:12:00.223Z,17.20
2022-08-04T04:14:36.011Z,17.10
2022-08-04T04:17:19.867Z,17.10
2022-08-04T04:19:58.530Z,17.10
2022-08-04T04:22:26.074Z,17.20
2022-08-04T04:24:59.313Z,17.20
2022-08-04T04:27:57.681Z,17.20
2022-08-04T04:31:17.552Z,17.20
2022-08-04T04:34:04.436Z,17.30
2022-08-04T04:36:37.906Z,17.30
2022-08-04T04:39:09.112Z,17.40
2022-08-04T04:41:36.335Z,17.40
2022-08-04T04:44:30.817Z,17.40
2022-08-04T04:47:13.675Z,17.50
2022-08-04T04:49:54.735Z,17.50
2022-08-04T04:52:24.411Z,17.60
2022-08-04T04:55:19.709Z,17.60
2022-08-04T04:57:51.905Z,17.50
2022-08-04T05:00:26.942Z,17.60
2022-08-04T05:03:09.136Z,17.50
2022-08-04T05:06:15.228Z,17.60
2022-08-04T05:09:00.980Z,17.60
2022-08-04T05:12:00.477Z,17.70
2022-08-04T05:14:41.561Z,17.80
2022-08-04T05:17:25.700Z,17.80
2022-08-04T05:19:55.961Z,17.80
2022-08-04T05:22:51.993Z,17.90
2022-08-04T05:25:22.300Z,18.00
2022-08-04T05:27:56.525Z,18.00
2022-08-04T05:30:24.837Z,18.10
2022-08-04T05:33:04.085Z,18.20
2022-08-04T05:35:52.111Z,18.30
2022-08-04T05:38:23.630Z,18.40
2022-08-04T05:40:50.899Z,18.50
2022-08-04T05:43:18.134Z,18.60
2022-08-04T05:45:48.196Z,18.60
2022-08-04T05:48:16.330Z,18.70
2022-08-04T05:50:44.938Z,18.80
2022-08-04T05:53:12.254Z,18.90
2022-08-04T05:55:49.032Z,19.00
2022-08-04T05:58:30.619Z,19.10
2022-08-04T06:01:00.921Z,19.10
2022-08-04T06:03:30.096Z,19.20
2022-08-04T06:05:57.507Z,19.30
2022-08-04T06:08:24.965Z,19.40
2022-08-04T06:10:52.786Z,19.50
2022-08-04T06:13:47.844Z,19.60
2022-08-04T06:16:29.246Z,19.70
2022-08-04T06:20:02.665Z,19.90
2022-08-04T06:21:49.775Z,20.00
2022-08-04T06:24:20.195Z,20.10
2022-08-04T06:26:48.073Z,20.30
2022-08-04T06:29:21.047Z,20.50
2022-08-04T06:32:30.161Z,20.70
2022-08-04T06:34:45.167Z,20.80
2022-08-04T06:37:12.431Z,21.00
2022-08-04T06:39:59.754Z,21.00
2022-08-04T06:42:27.134Z,21.10
2022-08-04T06:44:57.870Z,21.10
2022-08-04T06:47:25.210Z,21.20
2022-08-04T06:51:23.320Z,21.30
2022-08-04T06:52:41.548Z,21.40
2022-08-04T06:55:09.116Z,21.50
2022-08-04T06:57:36.445Z,21.60
2022-08-04T07:00:11.974Z,21.70
2022-08-04T07:02:49.297Z,21.90
2022-08-04T07:05:16.631Z,22.00
2022-08-04T07:07:57.362Z,22.00
2022-08-04T07:10:27.729Z,22.20
2022-08-04T07:12:59.323Z,22.30
2022-08-04T07:15:26.847Z,22.40
2022-08-04T07:18:01.414Z,22.50
2022-08-04T07:20:34.154Z,22.70
2022-08-04T07:23:07.207Z,22.80
2022-08-04T07:26:01.064Z,23.00
2022-08-04T07:28:23.747Z,23.00
2022-08-04T07:30:51.145Z,23.10
2022-08-04T07:33:18.588Z,23.20
2022-08-04T07:36:10.191Z,23.30
2022-08-04T07:38:37.613Z,23.40
2022-08-04T07:44:01.042Z,23.60
2022-08-04T07:46:31.271Z,23.70
2022-08-04T07:49:00.839Z,23.80
2022-08-04T07:51:30.443Z,23.90
2022-08-04T07:53:57.809Z,24.00
2022-08-04T07:56:26.420Z,24.10
2022-08-04T07:58:54.382Z,24.20
2022-08-04T08:01:22.189Z,24.30
2022-08-04T08:03:49.796Z,24.50
2022-08-04T08:06:33.341Z,24.60
2022-08-04T08:09:13.013Z,24.70
2022-08-04T08:12:36.223Z,24.80
2022-08-04T08:14:35.407Z,24.90
2022-08-04T08:17:03.229Z,25.00
2022-08-04T08:19:31.304Z,25.10
2022-08-04T08:22:00.985Z,25.20
2022-08-04T08:24:29.837Z,25.30
2022-08-04T08:26:57.477Z,25.40
2022-08-04T08:29:25.659Z,25.50
2022-08-04T08:31:57.377Z,25.60
2022-08-04T08:34:28.574Z,25.60
2022-08-04T08:37:13.272Z,25.80
2022-08-04T08:40:00.814Z,25.90
2022-08-04T08:42:45.846Z,26.00
2022-08-04T08:45:31.730Z,26.20
2022-08-04T08:48:16.216Z,26.40
2022-08-04T08:50:49.643Z,26.40
2022-08-04T08:53:22.799Z,26.50
2022-08-04T08:56:12.109Z,26.60
2022-08-04T08:59:17.774Z,26.70
2022-08-04T09:02:38.970Z,26.80
2022-08-04T09:05:15.077Z,26.90
2022-08-04T09:08:21.494Z,27.00
2022-08-04T09:10:55.867Z,27.10
2022-08-04T09:13:46.200Z,27.30
2022-08-04T09:16:24.535Z,27.30
2022-08-04T09:19:07.333Z,27.40
2022-08-04T09:21:59.052Z,27.50
2022-08-04T09:24:47.347Z,27.50
2022-08-04T09:27:24.674Z,27.50
2022-08-04T09:29:55.250Z,27.70
2022-08-04T09:32:52.881Z,27.80
2022-08-04T09:35:35.649Z,27.90
2022-08-04T09:38:29.423Z,28.00
2022-08-04T09:41:03.903Z,28.10
2022-08-04T09:44:49.906Z,28.20
2022-08-04T09:47:08.958Z,28.30
2022-08-04T09:49:47.160Z,28.40
2022-08-04T09:52:22.594Z,28.40
2022-08-04T09:54:53.454Z,28.50
2022-08-04T09:57:53.207Z,28.50
2022-08-04T10:00:20.819Z,28.70
2022-08-04T10:03:07.960Z,28.70
2022-08-04T10:05:46.991Z,28.80
2022-08-04T10:08:44.490Z,28.80
2022-08-04T10:11:55.359Z,28.80
2022-08-04T10:14:36.921Z,28.90
2022-08-04T10:17:26.264Z,29.00
2022-08-04T10:20:45.724Z,29.10
2022-08-04T10:23:17.901Z,29.20
2022-08-04T10:26:09.185Z,29.30
2022-08-04T10:28:43.480Z,29.40
2022-08-04T10:31:13.309Z,29.50
2022-08-04T10:33:53.160Z,29.50
2022-08-04T10:36:22.506Z,29.60
2022-08-04T10:38:57.785Z,29.70
2022-08-04T10:41:33.921Z,29.70
2022-08-04T10:44:06.495Z,29.80
2022-08-04T10:46:37.023Z,29.90
2022-08-04T10:49:21.803Z,29.90
2022-08-04T10:52:23.861Z,30.10
2022-08-04T10:55:10.039Z,30.20
2022-08-04T10:57:46.096Z,30.30
2022-08-04T11:00:33.929Z,30.40
2022-08-04T11:03:05.593Z,30.40
2022-08-04T11:05:49.415Z,30.40
2022-08-04T11:08:20.789Z,30.50
2022-08-04T11:10:51.299Z,30.50
2022-08-04T11:13:29.602Z,30.60
2022-08-04T11:15:57.682Z,30.70
2022-08-04T11:18:31.234Z,30.70
2022-08-04T11:21:21.494Z,30.80
2022-08-04T11:23:56.269Z,30.80
2022-08-04T11:26:29.557Z,30.90
2022-08-04T11:29:15.824Z,31.00
2022-08-04T11:31:51.842Z,31.10
2022-08-04T11:34:26.914Z,31.10
2022-08-04T11:36:56.975Z,31.20
2022-08-04T11:39:34.305Z,31.10
2022-08-04T11:42:28.139Z,31.20
2022-08-04T11:45:19.867Z,31.40
2022-08-04T11:48:04.067Z,31.50
2022-08-04T11:50:45.146Z,31.60
2022-08-04T11:53:17.055Z,31.60
2022-08-04T11:56:07.577Z,31.70
2022-08-04T11:58:32.769Z,31.60
2022-08-04T12:01:06.041Z,31.70
2022-08-04T12:04:04.146Z,31.80
2022-08-04T12:07:21.656Z,31.80
2022-08-04T12:09:58.899Z,31.80
2022-08-04T12:12:37.693Z,31.80
2022-08-04T12:15:19.384Z,31.90
2022-08-04T12:17:58.446Z,32.00
2022-08-04T12:20:31.978Z,32.00
2022-08-04T12:23:24.555Z,32.00
2022-08-04T12:25:55.901Z,31.90
2022-08-04T12:29:08.499Z,32.00
2022-08-04T12:31:31.510Z,32.00
2022-08-04T12:34:03.792Z,32.00
2022-08-04T12:36:55.490Z,32.10
2022-08-04T12:39:23.027Z,32.10
2022-08-04T12:42:03.715Z,32.10
2022-08-04T12:44:41.314Z,32.20
2022-08-04T12:47:36.555Z,32.30
2022-08-04T12:50:03.852Z,32.30
2022-08-04T12:53:01.016Z,32.30
2022-08-04T12:55:29.946Z,32.30
2022-08-04T12:57:58.019Z,32.30
2022-08-04T13:00:40.646Z,32.30
2022-08-04T13:03:14.067Z,32.40
2022-08-04T13:05:41.710Z,32.40
2022-08-04T13:08:10.326Z,32.30
2022-08-04T13:10:42.332Z,32.40
2022-08-04T13:13:18.040Z,32.40
2022-08-04T13:15:58.482Z,32.40
2022-08-04T13:18:31.988Z,32.50
2022-08-04T13:21:22.758Z,32.50
2022-08-04T13:24:10.976Z,32.60
2022-08-04T13:26:57.103Z,32.60
2022-08-04T13:29:58.860Z,32.60
2022-08-04T13:32:26.045Z,32.60
2022-08-04T13:34:55.227Z,32.60
2022-08-04T13:37:26.707Z,32.60
2022-08-04T13:39:55.240Z,32.60
2022-08-04T13:42:24.038Z,32.60
2022-08-04T13:44:54.936Z,32.60
2022-08-04T13:47:48.661Z,32.70
2022-08-04T13:50:20.720Z,32.60
2022-08-04T13:52:48.025Z,32.60
2022-08-04T13:55:22.536Z,32.60
2022-08-04T13:57:53.185Z,32.60
2022-08-04T14:00:29.354Z,32.70
2022-08-04T14:03:19.137Z,32.70
2022-08-04T14:06:09.397Z,32.60
2022-08-04T14:08:43.558Z,32.60
2022-08-04T14:11:10.908Z,32.70
2022-08-04T14:13:58.137Z,32.60
2022-08-04T14:16:25.402Z,32.60
2022-08-04T14:19:01.884Z,32.60
2022-08-04T14:21:29.398Z,32.60
2022-08-04T14:23:57.106Z,32.60
2022-08-04T14:26:34.778Z,32.60
2022-08-04T14:29:28.463Z,32.50
2022-08-04T14:32:13.907Z,32.50
2022-08-04T14:34:45.120Z,32.50
2022-08-04T14:37:17.417Z,32.40
2022-08-04T14:40:07.898Z,32.40
2022-08-04T14:42:55.287Z,32.30
2022-08-04T14:45:35.393Z,32.30
2022-08-04T14:48:21.845Z,32.10
2022-08-04T14:50:49.848Z,32.10
2022-08-04T14:53:22.142Z,32.00
2022-08-04T14:55:51.114Z,31.90
2022-08-04T14:58:35.053Z,31.80
2022-08-04T15:01:10.536Z,31.80
2022-08-04T15:03:52.443Z,31.80
2022-08-04T15:06:26.014Z,31.70
2022-08-04T15:08:54.367Z,31.70
2022-08-04T15:11:23.107Z,31.70
2022-08-04T15:13:55.310Z,31.60
2022-08-04T15:16:23.358Z,31.60
2022-08-04T15:18:51.262Z,31.40
2022-08-04T15:21:22.635Z,31.30
2022-08-04T15:23:50.701Z,31.30
2022-08-04T15:26:36.998Z,31.20
2022-08-04T15:29:16.628Z,31.20
2022-08-04T15:32:07.570Z,31.10
2022-08-04T15:34:51.732Z,31.10
2022-08-04T15:37:25.565Z,31.00
2022-08-04T15:40:01.091Z,31.00
2022-08-04T15:43:02.055Z,30.90
2022-08-04T15:46:33.202Z,30.90
2022-08-04T15:48:40.703Z,30.80
2022-08-04T15:51:14.202Z,30.70
2022-08-04T15:54:02.631Z,30.70
2022-08-04T15:56:29.666Z,30.80
2022-08-04T15:58:57.293Z,30.80
2022-08-04T16:01:24.777Z,30.90
2022-08-04T16:04:01.137Z,30.80
2022-08-04T16:06:30.285Z,30.70
2022-08-04T16:08:58.521Z,30.80
2022-08-04T16:11:31.418Z,30.70
2022-08-04T16:13:59.534Z,30.60
2022-08-04T16:16:46.292Z,30.50
2022-08-04T16:19:22.673Z,30.50
2022-08-04T16:21:51.873Z,30.50
2022-08-04T16:24:21.326Z,30.50
2022-08-04T16:26:55.157Z,30.40
2022-08-04T16:29:23.552Z,30.30
2022-08-04T16:32:06.248Z,30.30
2022-08-04T16:34:53.733Z,30.20
2022-08-04T16:37:32.934Z,30.20
2022-08-04T16:40:38.878Z,30.10
2022-08-04T16:43:13.738Z,30.00
2022-08-04T16:45:45.046Z,30.00
2022-08-04T16:48:12.895Z,29.90
2022-08-04T16:50:50.678Z,29.90
2022-08-04T16:53:58.770Z,29.90
2022-08-04T16:56:07.278Z,29.90
2022-08-04T16:58:36.795Z,29.90
2022-08-04T17:01:09.460Z,29.80
2022-08-04T17:03:38.565Z,29.80
2022-08-04T17:06:14.970Z,29.70
2022-08-04T17:08:42.542Z,29.70
2022-08-04T17:11:10.989Z,29.70
2022-08-04T17:14:03.315Z,29.70
2022-08-04T17:16:27.167Z,29.60
2022-08-04T17:18:54.722Z,29.50
2022-08-04T17:21:27.174Z,29.40
2022-08-04T17:24:12.404Z,29.40
2022-08-04T17:26:51.573Z,29.40
2022-08-04T17:29:21.540Z,29.40
2022-08-04T17:31:48.897Z,29.30
2022-08-04T17:34:21.327Z,29.20
2022-08-04T17:36:48.767Z,29.20
2022-08-04T17:39:21.324Z,29.10
2022-08-04T17:41:49.627Z,29.00
2022-08-04T17:44:17.615Z,29.00
2022-08-04T17:46:48.268Z,28.90
2022-08-04T17:49:18.974Z,28.80
2022-08-04T17:52:05.354Z,28.70
2022-08-04T17:54:39.562Z,28.60
2022-08-04T17:57:33.459Z,28.50
2022-08-04T18:00:00.825Z,28.40
2022-08-04T18:02:33.540Z,28.40
2022-08-04T18:05:07.752Z,28.30
2022-08-04T18:08:35.108Z,28.30
2022-08-04T18:10:56.085Z,28.20
2022-08-04T18:13:27.813Z,28.10
2022-08-04T18:16:04.884Z,28.00
2022-08-04T18:18:32.908Z,27.90
2022-08-04T18:21:02.737Z,27.80
2022-08-04T18:23:31.757Z,27.60
2022-08-04T18:26:02.220Z,27.50
2022-08-04T18:28:33.284Z,27.40
2022-08-04T18:31:01.930Z,27.30
2022-08-04T18:33:40.336Z,27.20
2022-08-04T18:36:33.319Z,27.10
2022-08-04T18:39:12.410Z,27.00
2022-08-04T18:42:02.466Z,26.90
2022-08-04T18:44:31.647Z,26.80
2022-08-04T18:47:22.185Z,26.70
2022-08-04T18:51:00.805Z,26.60
2022-08-04T18:52:34.777Z,26.50
2022-08-04T18:55:02.281Z,26.40
2022-08-04T18:57:59.357Z,26.30
2022-08-04T19:00:20.105Z,26.30
2022-08-04T19:02:47.735Z,26.20
2022-08-04T19:05:17.451Z,26.10
2022-08-04T19:08:11.424Z,26.00
2022-08-04T19:10:32.169Z,26.00
2022-08-04T19:12:59.624Z,25.90
2022-08-04T19:15:34.160Z,25.80
2022-08-04T19:18:18.956Z,25.80
2022-08-04T19:20:46.871Z,25.70
2022-08-04T19:24:23.422Z,25.60
2022-08-04T19:26:09.524Z,25.50
2022-08-04T19:28:47.360Z,25.50
2022-08-04T19:31:17.048Z,25.40
2022-08-04T19:33:58.590Z,25.40
2022-08-04T19:36:33.050Z,25.40
2022-08-04T19:39:03.892Z,25.30
2022-08-04T19:42:04.714Z,25.30
2022-08-04T19:44:24.157Z,25.20
2022-08-04T19:46:51.471Z,25.10
2022-08-04T19:50:02.966Z,25.10
2022-08-04T19:52:07.701Z,25.10
2022-08-04T19:54:34.955Z,25.00
2022-08-04T19:57:07.981Z,24.90
2022-08-04T19:59:36.325Z,24.90
2022-08-04T20:02:15.685Z,24.80
2022-08-04T20:04:42.900Z,24.70
2022-08-04T20:07:14.335Z,24.60
2022-08-04T20:09:41.928Z,24.60
2022-08-04T20:12:21.089Z,24.60
2022-08-04T20:14:48.528Z,24.50
2022-08-04T20:17:17.803Z,24.50
2022-08-04T20:22:52.723Z,24.40
2022-08-04T20:25:36.987Z,24.40
2022-08-04T20:28:05.262Z,24.40
2022-08-04T20:30:33.464Z,24.30
2022-08-04T20:33:01.317Z,24.30
2022-08-04T20:35:32.497Z,24.30
2022-08-04T20:38:33.755Z,24.20
2022-08-04T20:41:02.042Z,24.10
2022-08-04T20:43:31.131Z,24.10
2022-08-04T20:45:59.632Z,24.10
2022-08-04T20:48:30.339Z,24.00
2022-08-04T20:51:01.161Z,24.00
2022-08-04T20:53:46.556Z,23.90
2022-08-04T20:56:19.322Z,23.90
2022-08-04T20:58:59.822Z,23.80
2022-08-04T21:01:30.808Z,23.80
2022-08-04T21:04:27.716Z,23.70
2022-08-04T21:06:59.932Z,23.70
2022-08-04T21:09:38.622Z,23.60
2022-08-04T21:12:27.695Z,23.60
2022-08-04T21:15:01.468Z,23.50
2022-08-04T21:17:56.908Z,23.50
2022-08-04T21:20:28.000Z,23.50
2022-08-04T21:22:55.847Z,23.50
2022-08-04T21:25:29.457Z,23.40
2022-08-04T21:27:58.943Z,23.40
2022-08-04T21:30:32.936Z,23.40
2022-08-04T21:33:19.010Z,23.40
2022-08-04T21:35:47.208Z,23.30
2022-08-04T21:38:17.568Z,23.30
2022-08-04T21:43:42.926Z,23.20
2022-08-04T21:46:11.462Z,23.20
2022-08-04T21:48:39.335Z,23.10
2022-08-04T21:51:56.726Z,23.10
2022-08-04T21:54:08.178Z,23.10
2022-08-04T21:56:35.699Z,23.00
2022-08-04T21:59:08.746Z,22.90
2022-08-04T22:01:50.686Z,22.90
2022-08-04T22:04:20.034Z,22.90
2022-08-04T22:09:38.944Z,22.80
2022-08-04T22:12:10.402Z,22.80
2022-08-04T22:14:39.424Z,22.70
2022-08-04T22:17:06.702Z,22.60
2022-08-04T22:19:54.909Z,22.60
2022-08-04T22:22:24.734Z,22.60
2022-08-04T22:24:55.188Z,22.50
2022-08-04T22:27:55.186Z,22.50
2022-08-04T22:30:23.245Z,22.40
2022-08-04T22:32:50.652Z,22.30
2022-08-04T22:35:36.151Z,22.20
2022-08-04T22:38:22.292Z,22.10
2022-08-04T22:40:57.079Z,22.10
2022-08-04T22:43:32.381Z,22.10
2022-08-04T22:46:06.560Z,22.10
2022-08-04T22:48:35.077Z,22.00
2022-08-04T22:51:02.992Z,22.00
2022-08-04T22:53:30.995Z,22.00
2022-08-04T22:56:09.945Z,22.00
2022-08-04T22:58:40.469Z,21.90
2022-08-04T23:01:09.006Z,21.90
2022-08-04T23:03:38.648Z,21.90
2022-08-04T23:06:07.190Z,21.90
2022-08-04T23:08:39.199Z,21.90
2022-08-04T23:11:10.861Z,21.90
2022-08-04T23:13:38.270Z,21.90
2022-08-04T23:16:09.942Z,21.90
2022-08-04T23:18:42.155Z,21.80
2022-08-04T23:21:10.138Z,21.80
2022-08-04T23:23:45.163Z,21.80
2022-08-04T23:26:15.569Z,21.80
2022-08-04T23:28:43.321Z,21.70
2022-08-04T23:31:10.566Z,21.70
2022-08-04T23:33:51.266Z,21.70
2022-08-04T23:36:29.790Z,21.60
2022-08-04T23:39:04.161Z,21.50
2022-08-04T23:41:54.616Z,21.50
2022-08-04T23:44:24.690Z,21.50
2022-08-04T23:47:02.783Z,21.50
2022-08-04T23:49:44.121Z,21.40
2022-08-04T23:52:27.792Z,21.40
2022-08-04T23:54:58.969Z,21.50
2022-08-04T23:57:30.978Z,21.40
